sensor_id;sensor_type;location;lat;lon;timestamp;P1;durP1;ratioP1;P2;durP2;ratioP2
36995;SDS011;22905;50.340;10.776;2023-04-10T00:03:55;27.92;;;13.88;;
36995;SDS011;22905;50.340;10.776;2023-04-10T00:08:56;25.38;;;13.25;;
36995;SDS011;22905;50.340;10.776;2023-04-10T00:13:57;28.00;;;14.05;;
36995;SDS011;22905;50.340;10.776;2023-04-10T00:18:57;29.17;;;14.50;;
36995;SDS011;22905;50.340;10.776;2023-04-10T00:23:57;29.58;;;14.13;;
36995;SDS011;22905;50.340;10.776;2023-04-10T00:28:58;30.80;;;15.07;;
36995;SDS011;22905;50.340;10.776;2023-04-10T00:33:58;34.97;;;16.75;;
36995;SDS011;22905;50.340;10.776;2023-04-10T00:38:58;31.87;;;15.07;;
36995;SDS011;22905;50.340;10.776;2023-04-10T00:43:59;26.67;;;13.57;;
36995;SDS011;22905;50.340;10.776;2023-04-10T00:48:59;32.65;;;15.93;;
36995;SDS011;22905;50.340;10.776;2023-04-10T00:54:00;30.70;;;14.50;;
36995;SDS011;22905;50.340;10.776;2023-04-10T00:59:01;29.15;;;14.48;;
36995;SDS011;22905;50.340;10.776;2023-04-10T01:04:02;34.00;;;13.73;;
36995;SDS011;22905;50.340;10.776;2023-04-10T01:09:28;29.00;;;14.13;;
36995;SDS011;22905;50.340;10.776;2023-04-10T01:14:51;48.33;;;17.05;;
36995;SDS011;22905;50.340;10.776;2023-04-10T01:20:01;53.65;;;21.00;;
36995;SDS011;22905;50.340;10.776;2023-04-10T01:31:01;92.32;;;33.17;;
36995;SDS011;22905;50.340;10.776;2023-04-10T01:36:02;117.85;;;42.80;;
36995;SDS011;22905;50.340;10.776;2023-04-10T01:41:03;124.15;;;43.33;;
36995;SDS011;22905;50.340;10.776;2023-04-10T01:46:04;133.05;;;43.42;;
36995;SDS011;22905;50.340;10.776;2023-04-10T01:51:05;170.02;;;57.08;;
36995;SDS011;22905;50.340;10.776;2023-04-10T02:01:08;104.75;;;33.17;;
36995;SDS011;22905;50.340;10.776;2023-04-10T02:06:26;71.85;;;27.35;;
36995;SDS011;22905;50.340;10.776;2023-04-10T02:11:44;57.03;;;22.38;;
36995;SDS011;22905;50.340;10.776;2023-04-10T02:16:47;49.63;;;19.83;;
36995;SDS011;22905;50.340;10.776;2023-04-10T02:21:49;40.30;;;18.30;;
36995;SDS011;22905;50.340;10.776;2023-04-10T02:26:51;39.15;;;16.58;;
36995;SDS011;22905;50.340;10.776;2023-04-10T02:31:51;35.42;;;19.02;;
36995;SDS011;22905;50.340;10.776;2023-04-10T02:36:51;37.42;;;16.67;;
36995;SDS011;22905;50.340;10.776;2023-04-10T02:41:52;36.47;;;17.58;;
36995;SDS011;22905;50.340;10.776;2023-04-10T02:46:53;39.55;;;17.42;;
36995;SDS011;22905;50.340;10.776;2023-04-10T02:51:53;33.75;;;16.25;;
36995;SDS011;22905;50.340;10.776;2023-04-10T02:56:54;33.50;;;16.92;;
36995;SDS011;22905;50.340;10.776;2023-04-10T03:01:55;41.38;;;16.83;;
36995;SDS011;22905;50.340;10.776;2023-04-10T03:06:56;34.55;;;15.38;;
36995;SDS011;22905;50.340;10.776;2023-04-10T03:11:56;37.25;;;15.38;;
36995;SDS011;22905;50.340;10.776;2023-04-10T03:16:56;37.97;;;16.30;;
36995;SDS011;22905;50.340;10.776;2023-04-10T03:21:57;39.40;;;16.23;;
36995;SDS011;22905;50.340;10.776;2023-04-10T03:33:10;34.97;;;16.23;;
36995;SDS011;22905;50.340;10.776;2023-04-10T03:39:05;28.90;;;14.68;;
36995;SDS011;22905;50.340;10.776;2023-04-10T03:50:10;32.58;;;15.60;;
36995;SDS011;22905;50.340;10.776;2023-04-10T03:55:10;32.83;;;14.63;;
36995;SDS011;22905;50.340;10.776;2023-04-10T04:00:11;32.97;;;15.20;;
36995;SDS011;22905;50.340;10.776;2023-04-10T04:16:57;27.75;;;13.88;;
36995;SDS011;22905;50.340;10.776;2023-04-10T04:21:57;30.05;;;14.50;;
36995;SDS011;22905;50.340;10.776;2023-04-10T04:26:59;33.40;;;14.70;;
36995;SDS011;22905;50.340;10.776;2023-04-10T04:32:00;33.92;;;15.23;;
36995;SDS011;22905;50.340;10.776;2023-04-10T04:37:00;38.45;;;16.38;;
36995;SDS011;22905;50.340;10.776;2023-04-10T04:42:01;31.15;;;14.90;;
36995;SDS011;22905;50.340;10.776;2023-04-10T04:47:02;35.00;;;15.40;;
36995;SDS011;22905;50.340;10.776;2023-04-10T04:52:02;27.35;;;13.52;;
36995;SDS011;22905;50.340;10.776;2023-04-10T04:57:02;30.83;;;14.38;;
36995;SDS011;22905;50.340;10.776;2023-04-10T05:02:03;28.70;;;13.45;;
36995;SDS011;22905;50.340;10.776;2023-04-10T05:07:03;25.60;;;14.45;;
36995;SDS011;22905;50.340;10.776;2023-04-10T05:12:03;32.72;;;15.20;;
36995;SDS011;22905;50.340;10.776;2023-04-10T05:17:05;25.90;;;13.25;;
36995;SDS011;22905;50.340;10.776;2023-04-10T05:22:05;30.58;;;14.82;;
36995;SDS011;22905;50.340;10.776;2023-04-10T05:27:05;31.08;;;14.32;;
36995;SDS011;22905;50.340;10.776;2023-04-10T05:32:06;31.30;;;14.33;;
36995;SDS011;22905;50.340;10.776;2023-04-10T05:37:06;34.10;;;17.35;;
36995;SDS011;22905;50.340;10.776;2023-04-10T05:42:07;31.90;;;16.80;;
36995;SDS011;22905;50.340;10.776;2023-04-10T05:47:08;32.53;;;16.05;;
36995;SDS011;22905;50.340;10.776;2023-04-10T05:52:08;30.42;;;14.40;;
36995;SDS011;22905;50.340;10.776;2023-04-10T05:57:08;31.47;;;14.47;;
36995;SDS011;22905;50.340;10.776;2023-04-10T06:02:09;29.40;;;15.20;;
36995;SDS011;22905;50.340;10.776;2023-04-10T06:07:09;25.95;;;13.65;;
36995;SDS011;22905;50.340;10.776;2023-04-10T06:12:10;32.20;;;16.63;;
36995;SDS011;22905;50.340;10.776;2023-04-10T06:17:10;33.75;;;17.90;;
36995;SDS011;22905;50.340;10.776;2023-04-10T06:22:11;38.60;;;19.00;;
36995;SDS011;22905;50.340;10.776;2023-04-10T06:27:11;39.93;;;19.93;;
36995;SDS011;22905;50.340;10.776;2023-04-10T06:32:11;39.77;;;17.53;;
36995;SDS011;22905;50.340;10.776;2023-04-10T06:37:12;31.92;;;16.13;;
36995;SDS011;22905;50.340;10.776;2023-04-10T06:42:12;41.10;;;20.63;;
36995;SDS011;22905;50.340;10.776;2023-04-10T06:47:12;45.70;;;23.15;;
36995;SDS011;22905;50.340;10.776;2023-04-10T06:52:16;39.10;;;20.17;;
36995;SDS011;22905;50.340;10.776;2023-04-10T06:57:16;35.05;;;17.90;;
36995;SDS011;22905;50.340;10.776;2023-04-10T07:02:17;88.72;;;40.50;;
36995;SDS011;22905;50.340;10.776;2023-04-10T07:07:18;54.00;;;27.40;;
36995;SDS011;22905;50.340;10.776;2023-04-10T07:12:18;90.13;;;47.35;;
36995;SDS011;22905;50.340;10.776;2023-04-10T07:17:18;54.40;;;29.17;;
36995;SDS011;22905;50.340;10.776;2023-04-10T07:22:19;33.95;;;18.27;;
36995;SDS011;22905;50.340;10.776;2023-04-10T07:27:19;35.78;;;19.05;;
36995;SDS011;22905;50.340;10.776;2023-04-10T07:32:19;37.15;;;21.48;;
36995;SDS011;22905;50.340;10.776;2023-04-10T07:37:20;34.60;;;17.73;;
36995;SDS011;22905;50.340;10.776;2023-04-10T07:42:21;30.67;;;17.40;;
36995;SDS011;22905;50.340;10.776;2023-04-10T07:47:22;35.22;;;18.95;;
36995;SDS011;22905;50.340;10.776;2023-04-10T07:52:22;33.60;;;17.77;;
36995;SDS011;22905;50.340;10.776;2023-04-10T07:57:24;29.80;;;17.70;;
36995;SDS011;22905;50.340;10.776;2023-04-10T08:02:24;31.33;;;17.13;;
36995;SDS011;22905;50.340;10.776;2023-04-10T08:07:24;30.10;;;16.23;;
36995;SDS011;22905;50.340;10.776;2023-04-10T08:12:25;29.53;;;16.73;;
36995;SDS011;22905;50.340;10.776;2023-04-10T08:17:25;31.00;;;18.23;;
36995;SDS011;22905;50.340;10.776;2023-04-10T08:22:25;30.20;;;17.55;;
36995;SDS011;22905;50.340;10.776;2023-04-10T08:27:26;24.35;;;14.27;;
36995;SDS011;22905;50.340;10.776;2023-04-10T08:32:27;25.48;;;15.27;;
36995;SDS011;22905;50.340;10.776;2023-04-10T08:37:28;26.13;;;15.38;;
36995;SDS011;22905;50.340;10.776;2023-04-10T08:42:29;20.58;;;12.20;;
36995;SDS011;22905;50.340;10.776;2023-04-10T08:47:30;19.67;;;11.70;;
36995;SDS011;22905;50.340;10.776;2023-04-10T08:52:34;30.65;;;14.45;;
36995;SDS011;22905;50.340;10.776;2023-04-10T08:57:37;23.55;;;13.43;;
36995;SDS011;22905;50.340;10.776;2023-04-10T09:02:37;23.83;;;12.43;;
36995;SDS011;22905;50.340;10.776;2023-04-10T09:07:38;22.00;;;12.20;;
36995;SDS011;22905;50.340;10.776;2023-04-10T09:12:43;22.83;;;13.77;;
36995;SDS011;22905;50.340;10.776;2023-04-10T09:18:03;20.45;;;12.15;;
36995;SDS011;22905;50.340;10.776;2023-04-10T09:23:18;20.40;;;11.65;;
36995;SDS011;22905;50.340;10.776;2023-04-10T09:28:21;20.75;;;12.35;;
36995;SDS011;22905;50.340;10.776;2023-04-10T09:33:23;21.30;;;12.57;;
36995;SDS011;22905;50.340;10.776;2023-04-10T09:38:26;18.48;;;11.13;;
36995;SDS011;22905;50.340;10.776;2023-04-10T09:43:27;19.50;;;11.13;;
36995;SDS011;22905;50.340;10.776;2023-04-10T09:48:27;20.38;;;11.45;;
36995;SDS011;22905;50.340;10.776;2023-04-10T09:53:27;16.55;;;10.00;;
36995;SDS011;22905;50.340;10.776;2023-04-10T09:58:27;17.33;;;10.48;;
36995;SDS011;22905;50.340;10.776;2023-04-10T10:03:28;17.67;;;9.77;;
36995;SDS011;22905;50.340;10.776;2023-04-10T10:08:28;13.90;;;8.03;;
36995;SDS011;22905;50.340;10.776;2023-04-10T10:24:01;10.90;;;7.22;;
36995;SDS011;22905;50.340;10.776;2023-04-10T10:29:02;10.85;;;6.53;;
36995;SDS011;22905;50.340;10.776;2023-04-10T10:34:04;28.63;;;14.80;;
36995;SDS011;22905;50.340;10.776;2023-04-10T10:44:45;10.07;;;6.13;;
36995;SDS011;22905;50.340;10.776;2023-04-10T10:49:54;10.90;;;6.15;;
36995;SDS011;22905;50.340;10.776;2023-04-10T10:54:55;11.30;;;6.53;;
36995;SDS011;22905;50.340;10.776;2023-04-10T10:59:55;19.03;;;10.47;;
36995;SDS011;22905;50.340;10.776;2023-04-10T11:04:56;12.87;;;7.37;;
36995;SDS011;22905;50.340;10.776;2023-04-10T11:09:56;9.87;;;7.00;;
36995;SDS011;22905;50.340;10.776;2023-04-10T11:15:02;13.27;;;7.10;;
36995;SDS011;22905;50.340;10.776;2023-04-10T11:20:04;9.98;;;6.57;;
36995;SDS011;22905;50.340;10.776;2023-04-10T11:25:04;9.45;;;6.25;;
36995;SDS011;22905;50.340;10.776;2023-04-10T11:30:26;8.80;;;6.40;;
36995;SDS011;22905;50.340;10.776;2023-04-10T11:35:27;12.68;;;6.75;;
36995;SDS011;22905;50.340;10.776;2023-04-10T11:45:30;8.88;;;5.72;;
36995;SDS011;22905;50.340;10.776;2023-04-10T11:50:30;9.13;;;6.30;;
36995;SDS011;22905;50.340;10.776;2023-04-10T11:55:35;10.32;;;6.40;;
36995;SDS011;22905;50.340;10.776;2023-04-10T12:00:38;10.70;;;6.88;;
36995;SDS011;22905;50.340;10.776;2023-04-10T12:05:45;10.68;;;6.43;;
36995;SDS011;22905;50.340;10.776;2023-04-10T12:10:46;10.43;;;7.05;;
36995;SDS011;22905;50.340;10.776;2023-04-10T12:15:46;10.07;;;6.47;;
36995;SDS011;22905;50.340;10.776;2023-04-10T12:20:47;9.03;;;6.53;;
36995;SDS011;22905;50.340;10.776;2023-04-10T12:25:47;9.15;;;6.05;;
36995;SDS011;22905;50.340;10.776;2023-04-10T12:30:48;8.57;;;6.03;;
36995;SDS011;22905;50.340;10.776;2023-04-10T12:35:51;9.23;;;6.00;;
36995;SDS011;22905;50.340;10.776;2023-04-10T12:40:56;8.82;;;6.28;;
36995;SDS011;22905;50.340;10.776;2023-04-10T12:46:00;9.95;;;6.40;;
36995;SDS011;22905;50.340;10.776;2023-04-10T12:51:01;9.80;;;5.65;;
36995;SDS011;22905;50.340;10.776;2023-04-10T12:56:03;8.30;;;5.68;;
36995;SDS011;22905;50.340;10.776;2023-04-10T13:06:06;8.65;;;5.72;;
36995;SDS011;22905;50.340;10.776;2023-04-10T13:11:07;8.55;;;5.35;;
36995;SDS011;22905;50.340;10.776;2023-04-10T13:16:07;8.07;;;5.00;;
36995;SDS011;22905;50.340;10.776;2023-04-10T13:21:11;6.95;;;5.10;;
36995;SDS011;22905;50.340;10.776;2023-04-10T13:26:17;6.75;;;4.55;;
36995;SDS011;22905;50.340;10.776;2023-04-10T13:31:17;9.27;;;6.87;;
36995;SDS011;22905;50.340;10.776;2023-04-10T13:36:18;12.75;;;8.18;;
36995;SDS011;22905;50.340;10.776;2023-04-10T13:41:18;10.07;;;6.90;;
36995;SDS011;22905;50.340;10.776;2023-04-10T13:46:19;10.10;;;6.80;;
36995;SDS011;22905;50.340;10.776;2023-04-10T13:51:19;9.02;;;5.88;;
36995;SDS011;22905;50.340;10.776;2023-04-10T13:56:20;16.02;;;9.32;;
36995;SDS011;22905;50.340;10.776;2023-04-10T14:01:20;14.30;;;9.03;;
36995;SDS011;22905;50.340;10.776;2023-04-10T14:06:20;9.13;;;6.25;;
36995;SDS011;22905;50.340;10.776;2023-04-10T14:11:21;7.20;;;4.70;;
36995;SDS011;22905;50.340;10.776;2023-04-10T14:16:21;7.85;;;5.57;;
36995;SDS011;22905;50.340;10.776;2023-04-10T14:21:22;9.30;;;6.50;;
36995;SDS011;22905;50.340;10.776;2023-04-10T14:26:22;6.72;;;5.47;;
36995;SDS011;22905;50.340;10.776;2023-04-10T14:31:23;9.82;;;5.95;;
36995;SDS011;22905;50.340;10.776;2023-04-10T14:36:23;8.68;;;5.63;;
36995;SDS011;22905;50.340;10.776;2023-04-10T14:41:23;7.25;;;5.35;;
36995;SDS011;22905;50.340;10.776;2023-04-10T14:46:24;7.35;;;4.68;;
36995;SDS011;22905;50.340;10.776;2023-04-10T14:51:24;8.70;;;5.30;;
36995;SDS011;22905;50.340;10.776;2023-04-10T14:56:25;9.95;;;5.65;;
36995;SDS011;22905;50.340;10.776;2023-04-10T15:01:25;7.30;;;5.33;;
36995;SDS011;22905;50.340;10.776;2023-04-10T15:06:25;6.73;;;4.67;;
36995;SDS011;22905;50.340;10.776;2023-04-10T15:11:27;6.30;;;4.80;;
36995;SDS011;22905;50.340;10.776;2023-04-10T15:16:28;8.33;;;4.70;;
36995;SDS011;22905;50.340;10.776;2023-04-10T15:21:29;7.77;;;5.13;;
36995;SDS011;22905;50.340;10.776;2023-04-10T15:26:30;9.00;;;5.50;;
36995;SDS011;22905;50.340;10.776;2023-04-10T15:31:30;7.35;;;4.50;;
36995;SDS011;22905;50.340;10.776;2023-04-10T15:36:30;5.53;;;4.18;;
36995;SDS011;22905;50.340;10.776;2023-04-10T15:41:31;7.88;;;4.50;;
36995;SDS011;22905;50.340;10.776;2023-04-10T15:46:32;7.10;;;4.30;;
36995;SDS011;22905;50.340;10.776;2023-04-10T15:51:33;6.60;;;4.63;;
36995;SDS011;22905;50.340;10.776;2023-04-10T15:56:33;6.40;;;4.53;;
36995;SDS011;22905;50.340;10.776;2023-04-10T16:01:34;6.20;;;4.05;;
36995;SDS011;22905;50.340;10.776;2023-04-10T16:06:34;6.05;;;4.25;;
36995;SDS011;22905;50.340;10.776;2023-04-10T16:11:34;5.88;;;3.80;;
36995;SDS011;22905;50.340;10.776;2023-04-10T16:16:35;5.93;;;4.05;;
36995;SDS011;22905;50.340;10.776;2023-04-10T16:21:35;5.70;;;4.18;;
36995;SDS011;22905;50.340;10.776;2023-04-10T16:26:35;27.50;;;14.37;;
36995;SDS011;22905;50.340;10.776;2023-04-10T16:31:36;6.97;;;4.20;;
36995;SDS011;22905;50.340;10.776;2023-04-10T16:36:36;8.30;;;5.22;;
36995;SDS011;22905;50.340;10.776;2023-04-10T16:41:36;13.93;;;8.30;;
36995;SDS011;22905;50.340;10.776;2023-04-10T16:46:36;10.70;;;5.67;;
36995;SDS011;22905;50.340;10.776;2023-04-10T16:51:37;9.88;;;5.90;;
36995;SDS011;22905;50.340;10.776;2023-04-10T16:56:37;8.80;;;5.13;;
36995;SDS011;22905;50.340;10.776;2023-04-10T17:01:37;7.68;;;5.00;;
36995;SDS011;22905;50.340;10.776;2023-04-10T17:06:40;6.85;;;3.75;;
36995;SDS011;22905;50.340;10.776;2023-04-10T17:11:41;7.03;;;4.63;;
36995;SDS011;22905;50.340;10.776;2023-04-10T17:16:41;8.48;;;5.28;;
36995;SDS011;22905;50.340;10.776;2023-04-10T17:21:42;6.43;;;4.30;;
36995;SDS011;22905;50.340;10.776;2023-04-10T17:26:42;7.78;;;4.13;;
36995;SDS011;22905;50.340;10.776;2023-04-10T17:31:42;6.27;;;4.40;;
36995;SDS011;22905;50.340;10.776;2023-04-10T17:36:43;7.00;;;4.90;;
36995;SDS011;22905;50.340;10.776;2023-04-10T17:41:43;8.23;;;4.43;;
36995;SDS011;22905;50.340;10.776;2023-04-10T17:46:43;10.40;;;6.00;;
36995;SDS011;22905;50.340;10.776;2023-04-10T17:51:44;5.93;;;4.05;;
36995;SDS011;22905;50.340;10.776;2023-04-10T17:56:44;6.32;;;4.32;;
36995;SDS011;22905;50.340;10.776;2023-04-10T18:01:44;8.87;;;4.63;;
36995;SDS011;22905;50.340;10.776;2023-04-10T18:06:45;4.15;;;3.53;;
36995;SDS011;22905;50.340;10.776;2023-04-10T18:11:46;6.45;;;4.57;;
36995;SDS011;22905;50.340;10.776;2023-04-10T18:16:47;5.60;;;3.95;;
36995;SDS011;22905;50.340;10.776;2023-04-10T18:21:47;6.43;;;4.78;;
36995;SDS011;22905;50.340;10.776;2023-04-10T18:26:48;7.68;;;4.40;;
36995;SDS011;22905;50.340;10.776;2023-04-10T18:31:48;10.80;;;6.90;;
36995;SDS011;22905;50.340;10.776;2023-04-10T18:36:48;66.25;;;28.50;;
36995;SDS011;22905;50.340;10.776;2023-04-10T18:41:49;80.13;;;35.43;;
36995;SDS011;22905;50.340;10.776;2023-04-10T18:46:49;60.97;;;24.67;;
36995;SDS011;22905;50.340;10.776;2023-04-10T18:51:49;127.05;;;44.00;;
36995;SDS011;22905;50.340;10.776;2023-04-10T18:56:50;73.95;;;30.17;;
36995;SDS011;22905;50.340;10.776;2023-04-10T19:01:50;61.47;;;24.00;;
36995;SDS011;22905;50.340;10.776;2023-04-10T19:06:50;23.67;;;10.60;;
36995;SDS011;22905;50.340;10.776;2023-04-10T19:11:51;12.83;;;7.00;;
36995;SDS011;22905;50.340;10.776;2023-04-10T19:16:52;23.98;;;11.95;;
36995;SDS011;22905;50.340;10.776;2023-04-10T19:21:52;45.53;;;20.13;;
36995;SDS011;22905;50.340;10.776;2023-04-10T19:26:53;25.27;;;12.75;;
36995;SDS011;22905;50.340;10.776;2023-04-10T19:31:53;18.75;;;9.30;;
36995;SDS011;22905;50.340;10.776;2023-04-10T19:36:53;12.43;;;7.57;;
36995;SDS011;22905;50.340;10.776;2023-04-10T19:41:56;8.60;;;5.35;;
36995;SDS011;22905;50.340;10.776;2023-04-10T19:46:57;8.53;;;4.77;;
36995;SDS011;22905;50.340;10.776;2023-04-10T19:51:57;9.00;;;5.50;;
36995;SDS011;22905;50.340;10.776;2023-04-10T19:56:57;10.95;;;6.03;;
36995;SDS011;22905;50.340;10.776;2023-04-10T20:01:58;8.90;;;6.20;;
36995;SDS011;22905;50.340;10.776;2023-04-10T20:06:58;9.05;;;4.97;;
36995;SDS011;22905;50.340;10.776;2023-04-10T20:11:58;8.00;;;5.00;;
36995;SDS011;22905;50.340;10.776;2023-04-10T20:16:59;8.70;;;5.35;;
36995;SDS011;22905;50.340;10.776;2023-04-10T20:21:59;8.95;;;5.28;;
36995;SDS011;22905;50.340;10.776;2023-04-10T20:27:00;7.38;;;4.80;;
36995;SDS011;22905;50.340;10.776;2023-04-10T20:32:00;9.73;;;6.35;;
36995;SDS011;22905;50.340;10.776;2023-04-10T20:37:01;9.20;;;5.43;;
36995;SDS011;22905;50.340;10.776;2023-04-10T20:42:01;8.40;;;5.50;;
36995;SDS011;22905;50.340;10.776;2023-04-10T20:47:01;8.32;;;4.97;;
36995;SDS011;22905;50.340;10.776;2023-04-10T20:52:02;7.10;;;5.17;;
36995;SDS011;22905;50.340;10.776;2023-04-10T20:57:03;7.32;;;5.28;;
36995;SDS011;22905;50.340;10.776;2023-04-10T21:02:05;8.68;;;5.68;;
36995;SDS011;22905;50.340;10.776;2023-04-10T21:07:05;9.30;;;5.20;;
36995;SDS011;22905;50.340;10.776;2023-04-10T21:12:05;6.43;;;4.53;;
36995;SDS011;22905;50.340;10.776;2023-04-10T21:17:06;11.77;;;6.80;;
36995;SDS011;22905;50.340;10.776;2023-04-10T21:22:06;12.00;;;5.73;;
36995;SDS011;22905;50.340;10.776;2023-04-10T21:32:10;14.23;;;5.55;;
36995;SDS011;22905;50.340;10.776;2023-04-10T21:37:10;8.27;;;4.93;;
36995;SDS011;22905;50.340;10.776;2023-04-10T21:42:10;11.77;;;5.43;;
36995;SDS011;22905;50.340;10.776;2023-04-10T21:47:11;8.15;;;4.55;;
36995;SDS011;22905;50.340;10.776;2023-04-10T21:52:11;10.98;;;5.63;;
36995;SDS011;22905;50.340;10.776;2023-04-10T21:57:11;12.07;;;5.57;;
36995;SDS011;22905;50.340;10.776;2023-04-10T22:02:12;10.55;;;5.53;;
36995;SDS011;22905;50.340;10.776;2023-04-10T22:07:12;12.03;;;5.53;;
36995;SDS011;22905;50.340;10.776;2023-04-10T22:12:12;8.00;;;4.88;;
36995;SDS011;22905;50.340;10.776;2023-04-10T22:17:13;8.17;;;5.20;;
36995;SDS011;22905;50.340;10.776;2023-04-10T22:22:13;8.37;;;5.83;;
36995;SDS011;22905;50.340;10.776;2023-04-10T22:27:13;9.57;;;5.60;;
36995;SDS011;22905;50.340;10.776;2023-04-10T22:32:14;11.82;;;6.22;;
36995;SDS011;22905;50.340;10.776;2023-04-10T22:37:14;10.77;;;6.32;;
36995;SDS011;22905;50.340;10.776;2023-04-10T22:42:14;13.40;;;6.28;;
36995;SDS011;22905;50.340;10.776;2023-04-10T22:47:15;14.73;;;7.15;;
36995;SDS011;22905;50.340;10.776;2023-04-10T22:52:15;10.07;;;6.13;;
36995;SDS011;22905;50.340;10.776;2023-04-10T22:57:15;15.38;;;6.65;;
36995;SDS011;22905;50.340;10.776;2023-04-10T23:02:16;8.07;;;5.47;;
36995;SDS011;22905;50.340;10.776;2023-04-10T23:07:16;12.40;;;6.97;;
36995;SDS011;22905;50.340;10.776;2023-04-10T23:12:16;7.55;;;5.40;;
36995;SDS011;22905;50.340;10.776;2023-04-10T23:17:18;10.85;;;5.53;;
36995;SDS011;22905;50.340;10.776;2023-04-10T23:22:18;9.98;;;6.03;;
36995;SDS011;22905;50.340;10.776;2023-04-10T23:27:19;14.77;;;6.47;;
36995;SDS011;22905;50.340;10.776;2023-04-10T23:32:19;8.60;;;5.43;;
36995;SDS011;22905;50.340;10.776;2023-04-10T23:37:19;9.88;;;5.65;;
36995;SDS011;22905;50.340;10.776;2023-04-10T23:42:20;7.93;;;5.18;;
36995;SDS011;22905;50.340;10.776;2023-04-10T23:47:20;8.20;;;5.05;;
36995;SDS011;22905;50.340;10.776;2023-04-10T23:52:20;9.05;;;6.28;;
36995;SDS011;22905;50.340;10.776;2023-04-10T23:57:21;8.95;;;6.00;;
